Aguanga, CA

5:29 PM PST on March 02, 2015 (GMT -0800)
Palm Springs International | Change Station
CLOSE
Current Station
Airport
Location: Palm Springs,
Elevation: 476 ft
Nearby Weather Stations

Elev 476 ft 33.82 °N, 116.50 °W | Updated 36 minutes ago

Overcast
Overcast
58 °F
Feels Like 58 °F
N
6
Wind Variable Wind from Variable

Today
High -- | Low -- °F
--% Chance of Precip.
Yesterday
High -- | Low -- °F
Precip. -- in
6:14 AM 5:44 PM
Waxing Gibbous, 94% visible
Pressure 29.90 in
Visibility 10.0 miles
Clouds Scattered Clouds 8000 ft
Dew Point 41 °F
Humidity 53%
Rainfall 0.31 in
Snow Depth Not available.
UV 0 out of 12
Pollen 5.40 out of 12
Air Quality Not available.
Flu Activity Not available.
METAR KPSP 030053Z VRB05KT 10SM SCT080 14/05 A2989 RMK AO2 SLP124 T01440050

More Conditions Fewer Conditions

Pressure 29.90 in
Visibility 10.0 miles
Clouds Scattered Clouds 8000 ft
Dew Point 41 °F
Humidity 53%
Rainfall 0.31 in
Snow Depth Not available.
UV 0 out of 12
Pollen 5.40 out of 12
Air Quality Not available.
Flu Activity Not available.
METAR KPSP 030053Z VRB05KT 10SM SCT080 14/05 A2989 RMK AO2 SLP124 T01440050

More Conditions Fewer Conditions

10-Day Weather Forecast

Almanac

Astronomy

Mar. 02, 2015 Rise Set
Actual Time
Civil Twilight
Nautical Twilight
Astronomical Twilight
Moon
Length of Visible Light
Length of Day
Tomorrow will be .
, % of the Moon is Illuminated

Today's Extremes

State Highs State Lows

Community

WunderPhotos

Upload Photos

1,802,020 photos uploaded!

WunderBlogs® & News

Nearby

Air Quality

  Air Quality AQ Index Pollutant
Not available.

Snow Depth

Station Depth Elevation

Earthquake Activity

City Distance Mag. Time & Date
Minimum magnitude displayed is 2.5.

Coastal Water Temperatures

Place Temperature

Nearby Weather Stations